Time;durP1;ratioP1;P1;durP2;ratioP2;P2;SDS_P1;SDS_P2;PMS_P1;PMS_P2;Temp;Humidity;BMP_temperature;BMP_pressure;BME280_temperature;BME280_humidity;BME280_pressure;Samples;Min_cycle;Max_cycle;Signal;HPM_P1;HPM_P2
2022/03/27 00:01:05;;;;;;;25.40;15.80;;;5.00;99.90;;;;;;4950207;28;20206;-78
2022/03/27 00:03:33;;;;;;;23.73;15.80;;;5.00;99.90;;;;;;4951578;28;20198;-78
2022/03/27 00:06:00;;;;;;;21.83;16.10;;;5.00;99.90;;;;;;4950187;28;20218;-77
2022/03/27 00:08:27;;;;;;;21.73;15.73;;;5.00;99.90;;;;;;4943533;28;20223;-77
2022/03/27 00:13:39;;;;;;;22.73;16.60;;;4.90;99.90;;;;;;4953693;28;20190;-77
2022/03/27 00:16:06;;;;;;;24.07;16.30;;;4.90;99.90;;;;;;4945516;28;20271;-77
2022/03/27 00:18:34;;;;;;;22.13;15.63;;;4.90;99.90;;;;;;4945627;28;20612;-78
2022/03/27 00:21:01;;;;;;;27.47;16.70;;;4.80;99.90;;;;;;4945669;28;20288;-78
2022/03/27 00:23:28;;;;;;;22.07;15.53;;;4.70;99.90;;;;;;4954193;28;20231;-78
2022/03/27 00:25:55;;;;;;;23.00;15.77;;;4.70;99.90;;;;;;4949600;28;20771;-78
2022/03/27 00:28:22;;;;;;;25.50;17.63;;;4.60;99.90;;;;;;4944520;28;20251;-78
2022/03/27 00:30:48;;;;;;;24.50;16.93;;;4.60;99.90;;;;;;4942638;28;20219;-77
2022/03/27 00:33:16;;;;;;;20.27;15.73;;;4.50;99.90;;;;;;4944346;28;20296;-77
2022/03/27 00:35:44;;;;;;;22.33;15.17;;;4.50;99.90;;;;;;4949247;28;20249;-77
2022/03/27 00:38:11;;;;;;;21.73;16.90;;;4.40;99.90;;;;;;4944639;28;20212;-77
2022/03/27 00:40:37;;;;;;;23.63;15.00;;;4.40;99.90;;;;;;4950223;28;20207;-78
2022/03/27 00:43:05;;;;;;;19.27;15.23;;;4.40;99.90;;;;;;4945105;28;20207;-78
2022/03/27 00:45:32;;;;;;;19.80;14.07;;;4.40;99.90;;;;;;4952372;28;20671;-77
2022/03/27 00:47:59;;;;;;;21.27;15.20;;;4.40;99.90;;;;;;4952895;28;20213;-78
2022/03/27 00:50:26;;;;;;;28.10;17.33;;;4.30;99.90;;;;;;4948805;28;20196;-78
2022/03/27 00:52:54;;;;;;;22.80;16.00;;;4.30;99.90;;;;;;4941218;28;20254;-78
2022/03/27 00:55:20;;;;;;;19.43;15.17;;;4.20;99.90;;;;;;4950424;28;20227;-77
2022/03/27 00:57:47;;;;;;;22.93;15.30;;;4.20;99.90;;;;;;4944157;28;20266;-77
2022/03/27 01:00:20;;;;;;;21.97;15.07;;;4.10;99.90;;;;;;4946620;28;20278;-78
2022/03/27 01:02:48;;;;;;;27.83;16.60;;;4.10;99.90;;;;;;4941940;28;20676;-77
2022/03/27 01:05:15;;;;;;;22.73;15.20;;;4.10;99.90;;;;;;4951185;28;20655;-77
2022/03/27 01:07:42;;;;;;;22.73;15.37;;;4.10;99.90;;;;;;4943531;28;20215;-78
2022/03/27 01:10:10;;;;;;;25.07;17.07;;;4.10;99.90;;;;;;4939818;28;20205;-78
2022/03/27 01:12:41;;;;;;;27.10;16.93;;;4.10;99.90;;;;;;4941993;28;20269;-77
2022/03/27 01:15:26;;;;;;;19.60;14.97;;;4.00;99.90;;;;;;4938637;28;20258;-77
2022/03/27 01:17:52;;;;;;;24.80;16.07;;;3.90;99.90;;;;;;4948441;28;20226;-78
2022/03/27 01:20:30;;;;;;;24.00;16.33;;;3.90;99.90;;;;;;4938934;28;20684;-77
2022/03/27 01:22:57;;;;;;;21.17;14.97;;;3.80;99.90;;;;;;4943847;28;20455;-77
2022/03/27 01:25:24;;;;;;;25.67;15.53;;;3.70;99.90;;;;;;4945660;28;20223;-77
2022/03/27 01:27:51;;;;;;;24.33;15.47;;;3.80;99.90;;;;;;4944664;28;20296;-77
2022/03/27 01:30:17;;;;;;;19.63;14.57;;;3.80;99.90;;;;;;4948259;28;20450;-78
2022/03/27 01:32:45;;;;;;;24.53;15.50;;;3.80;99.90;;;;;;4946981;28;20202;-77
2022/03/27 01:35:12;;;;;;;21.90;15.23;;;3.70;99.90;;;;;;4941030;28;20233;-77
2022/03/27 01:37:41;;;;;;;22.73;15.30;;;3.60;99.90;;;;;;4934833;28;20199;-77
2022/03/27 01:40:08;;;;;;;26.13;14.80;;;3.60;99.90;;;;;;4945987;28;20660;-78
2022/03/27 01:42:35;;;;;;;20.20;13.80;;;3.60;99.90;;;;;;4952152;28;20463;-78
2022/03/27 01:45:02;;;;;;;22.03;15.10;;;3.60;99.90;;;;;;4951682;28;20962;-78
2022/03/27 01:47:29;;;;;;;24.60;16.33;;;3.60;99.90;;;;;;4948063;28;20831;-76
2022/03/27 01:49:55;;;;;;;27.13;15.37;;;3.50;99.90;;;;;;4947291;28;20537;-77
2022/03/27 01:52:23;;;;;;;20.07;14.33;;;3.50;99.90;;;;;;4953544;28;20743;-77
2022/03/27 01:54:51;;;;;;;23.47;15.43;;;3.50;99.90;;;;;;4947407;28;20222;-77
2022/03/27 01:57:18;;;;;;;22.40;14.57;;;3.50;99.90;;;;;;4942580;28;20247;-77
2022/03/27 01:59:45;;;;;;;20.37;14.07;;;3.50;99.90;;;;;;4947212;28;20621;-78
2022/03/27 02:02:11;;;;;;;22.20;15.83;;;3.50;99.90;;;;;;4949489;28;20515;-77
2022/03/27 02:04:38;;;;;;;16.17;13.27;;;3.40;99.90;;;;;;4976587;23;21023;-79
2022/03/27 02:07:05;;;;;;;26.13;16.23;;;3.40;99.90;;;;;;4990550;28;20462;-81
2022/03/27 02:09:32;;;;;;;26.23;15.37;;;3.40;99.90;;;;;;4976769;28;20244;-80
2022/03/27 02:12:01;;;;;;;20.13;14.30;;;3.40;99.90;;;;;;4974066;28;20247;-79
2022/03/27 02:14:27;;;;;;;22.70;15.10;;;3.30;99.90;;;;;;4974950;28;20213;-79
2022/03/27 02:16:54;;;;;;;23.80;14.93;;;3.30;99.90;;;;;;4968205;28;20224;-77
2022/03/27 02:19:21;;;;;;;22.10;14.77;;;3.30;99.90;;;;;;4971647;28;20451;-80
2022/03/27 02:21:48;;;;;;;23.03;15.17;;;3.30;99.90;;;;;;4975093;28;20453;-80
2022/03/27 02:24:15;;;;;;;24.83;14.23;;;3.20;99.90;;;;;;4975789;28;20445;-80
2022/03/27 02:26:46;;;;;;;21.93;14.90;;;3.20;99.90;;;;;;4969265;28;20528;-80
2022/03/27 02:29:15;;;;;;;23.67;14.90;;;3.10;99.90;;;;;;4968553;28;20208;-79
2022/03/27 02:31:43;;;;;;;21.50;14.93;;;3.10;99.90;;;;;;4967605;28;20433;-78
2022/03/27 02:34:10;;;;;;;17.30;11.83;;;3.00;99.90;;;;;;4966400;28;20995;-79
2022/03/27 02:36:37;;;;;;;25.80;13.67;;;3.00;99.90;;;;;;4959535;28;20459;-79
2022/03/27 02:39:04;;;;;;;18.70;12.27;;;3.00;99.90;;;;;;4974268;28;20517;-80
2022/03/27 02:41:32;;;;;;;25.80;13.40;;;2.90;99.90;;;;;;4980147;28;20425;-78
2022/03/27 02:43:59;;;;;;;23.47;14.30;;;2.90;99.90;;;;;;4972247;28;20198;-79
2022/03/27 02:46:27;;;;;;;18.70;12.93;;;2.90;99.90;;;;;;4971633;28;20495;-77
2022/03/27 02:48:53;;;;;;;17.13;12.93;;;2.80;99.90;;;;;;4968618;28;20488;-79
2022/03/27 02:51:20;;;;;;;20.00;14.73;;;2.80;99.90;;;;;;4975486;28;20450;-80
2022/03/27 02:53:47;;;;;;;19.07;14.20;;;2.70;99.90;;;;;;4966558;28;20437;-79
2022/03/27 02:56:14;;;;;;;21.77;15.27;;;2.70;99.90;;;;;;4966247;28;20469;-79
2022/03/27 02:58:41;;;;;;;23.53;16.07;;;2.60;99.90;;;;;;4973714;28;20476;-80
2022/03/27 03:01:09;;;;;;;23.50;14.93;;;2.60;99.90;;;;;;4972097;28;20447;-78
2022/03/27 03:03:37;;;;;;;20.57;14.97;;;2.50;99.90;;;;;;4980973;28;20825;-80
2022/03/27 03:06:08;;;;;;;28.10;17.97;;;2.50;99.90;;;;;;4971253;28;20489;-79
2022/03/27 03:08:36;;;;;;;22.80;16.07;;;2.50;99.90;;;;;;4968542;28;20472;-79
2022/03/27 03:11:03;;;;;;;25.03;16.00;;;2.50;99.90;;;;;;4967633;28;20478;-78
2022/03/27 03:13:30;;;;;;;21.40;15.50;;;2.40;99.90;;;;;;4966534;28;20991;-79
2022/03/27 03:15:58;;;;;;;25.57;17.20;;;2.40;99.90;;;;;;4969922;28;20471;-79
2022/03/27 03:18:25;;;;;;;20.70;15.17;;;2.40;99.90;;;;;;4967896;28;20459;-78
2022/03/27 03:20:54;;;;;;;32.30;18.17;;;2.40;99.90;;;;;;4971114;28;20441;-81
2022/03/27 03:23:21;;;;;;;25.07;16.33;;;2.50;99.90;;;;;;4970291;28;20450;-79
2022/03/27 03:25:48;;;;;;;25.37;17.00;;;2.50;99.90;;;;;;4969174;28;20899;-79
2022/03/27 03:28:14;;;;;;;24.13;16.67;;;2.50;99.90;;;;;;4968472;28;20535;-79
2022/03/27 03:30:41;;;;;;;24.60;16.47;;;2.60;99.90;;;;;;4972961;28;20519;-80
2022/03/27 03:33:08;;;;;;;26.93;16.97;;;2.50;99.90;;;;;;4972829;28;20482;-79
2022/03/27 03:35:35;;;;;;;32.10;17.50;;;2.50;99.90;;;;;;4964593;28;20468;-80
2022/03/27 03:38:03;;;;;;;24.77;16.07;;;2.50;99.90;;;;;;4964883;28;20513;-80
2022/03/27 03:40:30;;;;;;;22.10;15.87;;;2.40;99.90;;;;;;4964749;28;20465;-78
2022/03/27 03:42:57;;;;;;;28.03;17.23;;;2.40;99.90;;;;;;4970483;28;20461;-79
2022/03/27 03:45:24;;;;;;;29.17;17.50;;;2.40;99.90;;;;;;4971018;28;20470;-80
2022/03/27 03:47:51;;;;;;;29.50;19.17;;;2.30;99.90;;;;;;4974775;28;20434;-79
2022/03/27 03:50:17;;;;;;;32.10;20.17;;;2.30;99.90;;;;;;4975043;28;20508;-78
2022/03/27 03:52:44;;;;;;;26.17;18.60;;;2.30;99.90;;;;;;4969262;28;20433;-77
2022/03/27 03:55:13;;;;;;;24.23;17.63;;;2.30;99.90;;;;;;4966107;28;20491;-80
2022/03/27 03:57:39;;;;;;;26.80;17.93;;;2.30;99.90;;;;;;4948620;28;20512;-79
2022/03/27 04:00:08;;;;;;;29.13;19.60;;;2.20;99.90;;;;;;4950796;28;20456;-80
2022/03/27 04:02:38;;;;;;;29.63;18.13;;;2.20;99.90;;;;;;4964260;28;20436;-79
2022/03/27 04:05:06;;;;;;;29.33;18.20;;;2.20;99.90;;;;;;4946489;28;20501;-80
2022/03/27 04:07:33;;;;;;;27.23;17.90;;;2.10;99.90;;;;;;4941664;28;20651;-79
2022/03/27 04:10:00;;;;;;;28.23;17.67;;;2.10;99.90;;;;;;4958914;28;20471;-79
2022/03/27 04:12:28;;;;;;;27.33;17.57;;;2.00;99.90;;;;;;4963898;28;20462;-79
2022/03/27 04:14:55;;;;;;;24.20;16.60;;;2.10;99.90;;;;;;4954716;28;20472;-79
2022/03/27 04:17:22;;;;;;;25.70;17.23;;;2.00;99.90;;;;;;4957882;28;20491;-79
2022/03/27 04:19:49;;;;;;;23.87;17.20;;;1.90;99.90;;;;;;4951162;28;20440;-81
2022/03/27 04:22:16;;;;;;;25.80;17.40;;;1.90;99.90;;;;;;4956882;28;20565;-79
2022/03/27 04:24:44;;;;;;;25.47;17.50;;;1.90;99.90;;;;;;4966087;28;20450;-79
2022/03/27 04:27:11;;;;;;;28.03;16.57;;;2.00;99.90;;;;;;4956133;28;20479;-79
2022/03/27 04:29:39;;;;;;;24.87;18.07;;;2.00;99.90;;;;;;4952278;28;20477;-79
2022/03/27 04:32:06;;;;;;;33.33;19.57;;;2.00;99.90;;;;;;4946138;28;20432;-77
2022/03/27 04:34:34;;;;;;;22.87;17.43;;;2.00;99.90;;;;;;4953316;28;20786;-77
2022/03/27 04:37:03;;;;;;;28.23;18.93;;;2.00;99.90;;;;;;4965377;28;20526;-83
2022/03/27 04:39:30;;;;;;;27.13;19.17;;;2.00;99.90;;;;;;4953506;28;20449;-81
2022/03/27 04:41:57;;;;;;;27.53;19.40;;;2.00;99.90;;;;;;4951022;28;20488;-80
2022/03/27 04:44:24;;;;;;;31.80;19.63;;;2.00;99.90;;;;;;4953254;28;20515;-82
2022/03/27 04:46:52;;;;;;;28.57;17.90;;;2.00;99.90;;;;;;4954147;28;20454;-84
2022/03/27 04:49:19;;;;;;;22.53;17.80;;;2.00;99.90;;;;;;4971065;28;20473;-80
2022/03/27 04:51:45;;;;;;;24.83;16.97;;;1.90;99.90;;;;;;4963909;28;20445;-85
2022/03/27 04:54:12;;;;;;;30.40;18.83;;;1.90;99.90;;;;;;4969967;28;20508;-81
2022/03/27 04:56:39;;;;;;;27.17;19.00;;;1.80;99.90;;;;;;4959263;28;20467;-79
2022/03/27 04:59:06;;;;;;;25.30;19.00;;;1.80;99.90;;;;;;4950528;28;20432;-78
2022/03/27 05:01:33;;;;;;;26.60;18.63;;;1.80;99.90;;;;;;4958561;28;20976;-81
2022/03/27 05:04:02;;;;;;;23.37;18.20;;;1.90;99.90;;;;;;4968539;28;20440;-79
2022/03/27 05:06:29;;;;;;;28.00;18.83;;;1.80;99.90;;;;;;4966977;28;20481;-82
2022/03/27 05:08:58;;;;;;;27.80;18.07;;;1.80;99.90;;;;;;4967918;28;20473;-80
2022/03/27 05:11:25;;;;;;;25.57;17.33;;;1.80;99.90;;;;;;4965636;28;20557;-80
2022/03/27 05:13:52;;;;;;;26.77;18.80;;;1.80;99.90;;;;;;4959473;28;20942;-80
2022/03/27 05:16:19;;;;;;;28.57;18.97;;;1.80;99.90;;;;;;4968499;28;20485;-80
2022/03/27 05:18:46;;;;;;;33.53;18.70;;;1.80;99.90;;;;;;4962887;28;20461;-81
2022/03/27 05:21:14;;;;;;;26.70;18.30;;;1.90;99.90;;;;;;4961596;28;20971;-81
2022/03/27 05:23:41;;;;;;;28.17;18.83;;;1.80;99.90;;;;;;4968138;28;20469;-81
2022/03/27 05:26:09;;;;;;;30.73;18.47;;;1.80;99.90;;;;;;4953208;28;20460;-80
2022/03/27 05:28:36;;;;;;;25.53;18.27;;;1.90;99.90;;;;;;4974191;28;20442;-81
2022/03/27 05:31:08;;;;;;;30.43;17.43;;;1.80;99.90;;;;;;4970750;28;20441;-80
2022/03/27 05:33:34;;;;;;;24.17;17.70;;;1.80;99.90;;;;;;4962140;28;20522;-81
2022/03/27 05:36:02;;;;;;;30.47;16.77;;;1.80;99.90;;;;;;4956903;28;20467;-80
2022/03/27 05:38:30;;;;;;;24.33;17.17;;;1.90;99.90;;;;;;4967770;28;20492;-82
2022/03/27 05:40:57;;;;;;;27.90;17.33;;;2.00;99.90;;;;;;4963912;28;20432;-81
2022/03/27 05:43:24;;;;;;;26.37;17.63;;;2.10;99.90;;;;;;4962879;28;20455;-82
2022/03/27 05:45:51;;;;;;;26.93;18.20;;;2.20;99.90;;;;;;4968127;28;20463;-82
2022/03/27 05:48:18;;;;;;;24.00;17.57;;;2.40;99.90;;;;;;4952055;28;20481;-80
2022/03/27 05:50:45;;;;;;;25.63;16.67;;;2.40;99.90;;;;;;4961745;28;20551;-81
2022/03/27 05:53:12;;;;;;;24.33;17.90;;;2.50;99.90;;;;;;4965489;28;20519;-81
2022/03/27 05:55:40;;;;;;;24.77;16.70;;;2.60;99.90;;;;;;4951838;28;20470;-81
2022/03/27 05:58:07;;;;;;;26.20;17.93;;;2.80;99.90;;;;;;4964695;28;20535;-81
2022/03/27 06:00:34;;;;;;;27.33;17.47;;;3.00;99.90;;;;;;4970889;28;20442;-81
2022/03/27 06:03:02;;;;;;;25.17;18.33;;;3.20;99.90;;;;;;4949541;28;20442;-81
2022/03/27 06:05:29;;;;;;;24.13;18.30;;;3.50;99.90;;;;;;4949923;28;20486;-82
2022/03/27 06:07:57;;;;;;;26.77;18.17;;;3.90;99.90;;;;;;4964646;28;20943;-80
2022/03/27 06:10:25;;;;;;;26.63;18.30;;;4.20;99.90;;;;;;4977516;28;20892;-81
2022/03/27 06:12:54;;;;;;;24.47;17.63;;;4.40;99.90;;;;;;4962985;28;20207;-81
2022/03/27 06:15:22;;;;;;;28.93;18.00;;;4.70;99.90;;;;;;4962528;28;20229;-81
2022/03/27 06:17:50;;;;;;;27.47;18.27;;;4.90;99.90;;;;;;4962087;28;20219;-82
2022/03/27 06:20:19;;;;;;;30.00;17.87;;;5.10;99.90;;;;;;4964773;28;20208;-80
2022/03/27 06:22:47;;;;;;;25.33;16.53;;;5.30;99.90;;;;;;4966546;28;20221;-80
2022/03/27 06:25:17;;;;;;;20.87;16.40;;;5.60;99.90;;;;;;4961666;28;20278;-82
2022/03/27 06:27:45;;;;;;;27.33;16.97;;;5.90;99.90;;;;;;4957661;28;20202;-82
2022/03/27 06:30:15;;;;;;;21.57;16.63;;;6.10;99.90;;;;;;4956216;28;20230;-81
2022/03/27 06:32:42;;;;;;;22.30;14.53;;;6.40;99.90;;;;;;4969107;28;20210;-82
2022/03/27 06:35:11;;;;;;;23.90;15.93;;;6.60;99.90;;;;;;4942566;28;20239;-84
2022/03/27 06:37:39;;;;;;;20.23;12.03;;;6.70;99.90;;;;;;4961174;28;21334;-86
2022/03/27 06:40:07;;;;;;;18.67;11.90;;;6.90;99.90;;;;;;4952209;28;20196;-85
2022/03/27 06:42:34;;;;;;;19.02;14.13;;;7.00;99.90;;;;;;4968776;28;20443;-85
2022/03/27 06:45:02;;;;;;;22.13;14.63;;;7.10;99.90;;;;;;4962020;28;20224;-87
2022/03/27 06:47:30;;;;;;;20.43;15.03;;;7.20;99.90;;;;;;4965436;28;20219;-87
2022/03/27 06:50:00;;;;;;;19.53;14.57;;;7.20;99.90;;;;;;4959296;28;20226;-88
2022/03/27 06:52:28;;;;;;;18.93;13.83;;;7.30;99.90;;;;;;4956754;28;20283;-85
2022/03/27 06:54:55;;;;;;;20.27;15.60;;;7.50;99.90;;;;;;4966024;28;20450;-85
2022/03/27 06:57:25;;;;;;;23.23;15.53;;;7.70;99.90;;;;;;4967440;28;20438;-83
2022/03/27 07:05:39;;;;;;;20.47;14.10;;;8.50;99.90;;;;;;4961906;28;20230;-84
2022/03/27 07:08:07;;;;;;;22.60;14.50;;;8.80;99.90;;;;;;4967728;28;20207;-84
2022/03/27 07:10:37;;;;;;;27.43;15.63;;;9.10;99.90;;;;;;4964757;28;20727;-85
2022/03/27 07:13:09;;;;;;;22.47;14.97;;;9.30;99.90;;;;;;4956527;28;20239;-81
2022/03/27 07:15:37;;;;;;;22.47;15.50;;;9.70;99.90;;;;;;4972033;28;20218;-78
2022/03/27 07:18:06;;;;;;;19.20;13.73;;;10.00;99.90;;;;;;4958217;28;20203;-82
2022/03/27 07:20:35;;;;;;;17.00;12.57;;;10.40;99.90;;;;;;4975104;28;20629;-81
2022/03/27 07:23:05;;;;;;;29.03;14.77;;;10.70;99.80;;;;;;4958673;28;20195;-80
2022/03/27 07:25:34;;;;;;;26.97;15.23;;;10.90;99.60;;;;;;4968700;28;20230;-82
2022/03/27 07:28:01;;;;;;;22.67;13.60;;;11.30;99.60;;;;;;4956758;28;20257;-85
2022/03/27 07:30:28;;;;;;;19.97;12.90;;;11.70;98.50;;;;;;4966217;28;20228;-80
2022/03/27 07:32:55;;;;;;;21.30;13.23;;;11.90;97.90;;;;;;4959298;28;20208;-82
2022/03/27 07:35:25;;;;;;;23.20;14.77;;;12.10;97.50;;;;;;4947199;28;20221;-80
2022/03/27 07:37:53;;;;;;;20.60;15.10;;;12.40;97.60;;;;;;4960140;28;20286;-81
2022/03/27 07:40:21;;;;;;;22.60;14.00;;;12.60;97.10;;;;;;4971223;28;20202;-81
2022/03/27 07:42:50;;;;;;;22.20;14.60;;;12.80;96.90;;;;;;4975592;28;20198;-81
2022/03/27 07:45:19;;;;;;;21.10;13.57;;;13.10;96.50;;;;;;4954759;28;20229;-81
2022/03/27 07:47:46;;;;;;;23.10;14.93;;;13.50;96.00;;;;;;4967031;28;20201;-81
2022/03/27 07:50:13;;;;;;;24.53;14.50;;;13.60;95.60;;;;;;4949291;28;20308;-80
2022/03/27 07:52:42;;;;;;;21.87;14.23;;;14.00;95.50;;;;;;4970056;28;20198;-79
2022/03/27 07:55:11;;;;;;;21.40;14.63;;;14.20;95.50;;;;;;4950010;28;20711;-82
2022/03/27 07:57:38;;;;;;;26.60;14.00;;;14.40;94.90;;;;;;4954186;28;20201;-81
2022/03/27 08:00:08;;;;;;;20.67;14.33;;;14.50;94.40;;;;;;4946631;28;20258;-79
2022/03/27 08:02:40;;;;;;;25.70;14.23;;;14.60;93.80;;;;;;4953370;28;20627;-82
2022/03/27 08:05:08;;;;;;;24.53;14.63;;;14.70;93.30;;;;;;4977264;23;20226;-79
2022/03/27 08:07:35;;;;;;;20.37;12.97;;;14.90;93.70;;;;;;4995944;28;20693;-81
2022/03/27 08:10:05;;;;;;;23.10;14.20;;;15.20;93.60;;;;;;4999155;28;20211;-79
2022/03/27 08:12:32;;;;;;;22.10;13.47;;;15.10;92.90;;;;;;5003202;28;20567;-80
2022/03/27 08:14:59;;;;;;;19.67;14.37;;;15.20;93.10;;;;;;4998414;28;20226;-79
2022/03/27 08:17:26;;;;;;;24.90;16.20;;;15.60;92.10;;;;;;4977435;28;20206;-80
2022/03/27 08:19:53;;;;;;;22.20;14.03;;;15.40;92.70;;;;;;4982923;28;20707;-81
2022/03/27 08:22:20;;;;;;;22.23;13.90;;;15.50;92.00;;;;;;4973101;28;20202;-80
2022/03/27 08:24:47;;;;;;;24.67;13.50;;;15.80;92.20;;;;;;4973378;28;20577;-80
2022/03/27 08:27:14;;;;;;;22.90;14.80;;;15.80;92.30;;;;;;4976239;28;20232;-78
2022/03/27 08:29:42;;;;;;;22.03;14.90;;;16.00;91.70;;;;;;4985710;28;20208;-79
2022/03/27 08:32:14;;;;;;;24.87;14.97;;;16.20;91.40;;;;;;4998100;28;20202;-79
2022/03/27 08:34:43;;;;;;;24.20;13.57;;;16.10;90.80;;;;;;4966776;28;20207;-80
2022/03/27 08:37:14;;;;;;;21.10;13.97;;;16.20;91.30;;;;;;4995358;28;20238;-80
2022/03/27 08:39:44;;;;;;;21.90;14.13;;;16.30;91.20;;;;;;4982298;28;20208;-79
2022/03/27 08:42:13;;;;;;;19.23;13.37;;;16.60;90.60;;;;;;4981867;28;20732;-80
2022/03/27 08:44:41;;;;;;;24.43;14.10;;;16.60;90.70;;;;;;4979310;28;20280;-80
2022/03/27 08:47:15;;;;;;;22.00;13.97;;;16.70;90.60;;;;;;4973889;28;20217;-80
2022/03/27 08:49:48;;;;;;;22.90;13.00;;;16.70;90.30;;;;;;4978364;28;20196;-80
2022/03/27 08:52:34;;;;;;;20.23;13.33;;;16.80;91.30;;;;;;4975123;28;20241;-80
2022/03/27 08:55:05;;;;;;;20.43;13.63;;;17.20;91.30;;;;;;4974452;28;20212;-80
2022/03/27 08:57:55;;;;;;;22.60;15.03;;;17.40;90.40;;;;;;4980010;28;20725;-79
2022/03/27 09:00:24;;;;;;;20.50;14.93;;;17.00;89.90;;;;;;4971931;28;20213;-79
2022/03/27 09:02:51;;;;;;;23.90;14.63;;;16.40;90.90;;;;;;4971939;28;20202;-79
2022/03/27 09:05:20;;;;;;;20.03;13.43;;;16.30;91.80;;;;;;4986340;28;20577;-80
2022/03/27 09:07:48;;;;;;;23.37;14.10;;;16.40;91.50;;;;;;4981357;28;20558;-80
2022/03/27 09:10:16;;;;;;;22.37;14.90;;;16.50;91.90;;;;;;4981006;28;20335;-80
2022/03/27 09:12:44;;;;;;;21.20;14.93;;;16.80;90.90;;;;;;4980029;28;20194;-80
2022/03/27 09:15:12;;;;;;;21.83;14.60;;;16.60;91.60;;;;;;4972730;28;20208;-80
2022/03/27 09:18:01;;;;;;;23.73;14.10;;;17.00;92.50;;;;;;4972237;28;20206;-80
2022/03/27 09:20:38;;;;;;;20.83;14.77;;;17.00;91.10;;;;;;4981701;28;20704;-81
2022/03/27 09:23:30;;;;;;;19.23;14.47;;;16.80;92.10;;;;;;4966016;28;20198;-80
2022/03/27 09:25:59;;;;;;;18.90;13.88;;;16.70;92.00;;;;;;4951957;28;20512;-79
2022/03/27 09:28:30;;;;;;;17.50;13.60;;;17.10;92.10;;;;;;4969784;28;20583;-79
2022/03/27 09:30:58;;;;;;;19.77;13.93;;;17.20;91.30;;;;;;4980756;28;20218;-80
2022/03/27 09:33:39;;;;;;;21.77;14.50;;;17.20;91.90;;;;;;4986166;28;20204;-83
2022/03/27 09:36:08;;;;;;;19.73;13.50;;;17.20;91.90;;;;;;4980534;28;20465;-80
2022/03/27 09:38:35;;;;;;;19.43;12.70;;;17.10;91.60;;;;;;4975903;28;20288;-82
2022/03/27 09:41:02;;;;;;;21.33;13.83;;;16.90;92.30;;;;;;4980359;28;20198;-81
2022/03/27 09:43:29;;;;;;;22.47;13.47;;;17.10;92.00;;;;;;4972417;28;20207;-80
2022/03/27 09:45:58;;;;;;;19.33;12.70;;;17.10;92.00;;;;;;4968515;28;20676;-82
2022/03/27 09:48:25;;;;;;;19.38;13.35;;;17.30;91.50;;;;;;4971404;28;20887;-82
2022/03/27 09:50:54;;;;;;;23.97;14.57;;;17.30;91.70;;;;;;4968833;28;20226;-83
2022/03/27 09:53:24;;;;;;;22.27;14.07;;;17.30;91.10;;;;;;4973849;28;20630;-82
2022/03/27 09:56:12;;;;;;;23.10;14.30;;;17.40;90.90;;;;;;4975544;28;20224;-82
2022/03/27 09:58:41;;;;;;;20.50;14.83;;;17.20;91.30;;;;;;4973302;28;20196;-81
2022/03/27 10:01:12;;;;;;;22.43;15.07;;;16.90;91.30;;;;;;4986232;28;20251;-84
2022/03/27 10:03:58;;;;;;;19.40;13.63;;;17.00;91.80;;;;;;4966734;28;20227;-80
2022/03/27 10:06:36;;;;;;;19.77;13.87;;;17.10;91.70;;;;;;4974724;28;20655;-82
2022/03/27 10:09:05;;;;;;;15.33;12.17;;;17.30;90.80;;;;;;4978417;28;20254;-82
2022/03/27 10:11:34;;;;;;;20.80;14.33;;;17.50;91.10;;;;;;4973567;28;20218;-82
2022/03/27 10:14:01;;;;;;;20.20;11.77;;;17.40;90.50;;;;;;4973999;28;20663;-82
2022/03/27 10:16:34;;;;;;;17.57;11.43;;;17.40;90.00;;;;;;4976273;28;20220;-81
2022/03/27 10:19:05;;;;;;;26.00;14.47;;;17.60;90.50;;;;;;4966596;28;20214;-82
2022/03/27 10:21:35;;;;;;;22.30;15.37;;;17.60;90.10;;;;;;4967774;28;20195;-83
2022/03/27 10:24:09;;;;;;;18.80;11.27;;;17.40;89.10;;;;;;4970741;28;20205;-82
2022/03/27 10:26:37;;;;;;;18.33;11.33;;;17.50;90.40;;;;;;4977928;28;20226;-82
2022/03/27 10:29:06;;;;;;;22.03;12.57;;;17.50;90.60;;;;;;4994409;28;20689;-83
2022/03/27 10:31:33;;;;;;;20.90;13.47;;;17.60;89.10;;;;;;4991724;28;20228;-83
2022/03/27 10:34:03;;;;;;;16.93;10.60;;;17.50;90.00;;;;;;4993296;28;20582;-81
2022/03/27 10:36:42;;;;;;;16.47;11.33;;;17.60;90.40;;;;;;4992859;28;20222;-82
2022/03/27 10:39:14;;;;;;;18.43;12.43;;;17.50;90.70;;;;;;4973267;28;20252;-83
2022/03/27 10:41:46;;;;;;;20.00;13.03;;;17.70;90.30;;;;;;4980638;28;20226;-82
2022/03/27 10:44:22;;;;;;;17.23;12.27;;;17.30;90.10;;;;;;4988361;28;20198;-82
2022/03/27 10:47:13;;;;;;;18.63;12.30;;;17.40;90.20;;;;;;4982045;28;20651;-82
2022/03/27 10:49:41;;;;;;;19.67;13.20;;;17.20;90.10;;;;;;4977093;28;20296;-83
2022/03/27 10:52:10;;;;;;;17.97;11.90;;;17.20;90.90;;;;;;4988074;28;20271;-83
2022/03/27 10:54:57;;;;;;;20.73;14.70;;;17.30;90.90;;;;;;4978496;28;20230;-82
2022/03/27 10:57:32;;;;;;;17.10;11.43;;;17.20;89.60;;;;;;4991154;28;20287;-82
2022/03/27 10:59:59;;;;;;;20.93;11.77;;;17.30;90.60;;;;;;4983713;28;20212;-82
2022/03/27 11:02:45;;;;;;;17.13;12.83;;;17.40;90.30;;;;;;4985358;28;20264;-82
2022/03/27 11:05:51;;;;;;;20.67;12.87;;;17.50;89.80;;;;;;4982946;28;20205;-82
2022/03/27 11:08:47;;;;;;;27.93;15.40;;;17.40;90.20;;;;;;4954775;28;20213;-81
2022/03/27 11:12:02;;;;;;;24.20;15.00;;;17.50;91.20;;;;;;4985018;28;20378;-82
2022/03/27 11:14:59;;;;;;;23.57;14.57;;;17.50;90.60;;;;;;4982032;28;20293;-80
2022/03/27 11:17:41;;;;;;;19.33;13.67;;;17.60;91.00;;;;;;4977393;28;20253;-82
2022/03/27 11:20:11;;;;;;;22.73;15.60;;;17.70;90.80;;;;;;4987396;28;20280;-82
2022/03/27 11:22:51;;;;;;;19.60;15.90;;;17.80;90.90;;;;;;4979410;28;20289;-82
2022/03/27 11:25:34;;;;;;;21.23;14.00;;;17.70;90.90;;;;;;4985548;28;20628;-82
2022/03/27 11:28:11;;;;;;;20.17;13.73;;;17.90;90.60;;;;;;4978442;28;20685;-83
2022/03/27 11:30:41;;;;;;;19.37;13.90;;;17.90;90.80;;;;;;4977558;28;20667;-82
2022/03/27 11:33:19;;;;;;;18.90;13.47;;;17.90;90.60;;;;;;4986111;28;20292;-82
2022/03/27 11:36:23;;;;;;;21.50;13.87;;;18.00;90.40;;;;;;4985824;28;20275;-83
2022/03/27 11:39:02;;;;;;;15.23;12.13;;;18.10;89.50;;;;;;4982103;28;20249;-82
2022/03/27 11:41:34;;;;;;;18.87;12.33;;;18.20;89.10;;;;;;4989060;28;20296;-82
2022/03/27 11:44:23;;;;;;;17.43;13.50;;;18.10;87.50;;;;;;4984113;28;20730;-82
2022/03/27 11:46:52;;;;;;;27.13;16.77;;;18.10;88.60;;;;;;4978241;28;20272;-82
2022/03/27 11:49:19;;;;;;;26.80;15.80;;;18.10;86.20;;;;;;4981267;28;20254;-81
2022/03/27 11:51:47;;;;;;;17.37;12.87;;;18.20;86.90;;;;;;4984257;28;20214;-81
2022/03/27 11:54:18;;;;;;;17.97;12.80;;;18.20;87.10;;;;;;4983037;28;20232;-81
2022/03/27 11:56:57;;;;;;;18.00;13.40;;;18.30;86.80;;;;;;4985379;28;20248;-81
2022/03/27 11:59:26;;;;;;;19.27;13.90;;;18.30;86.00;;;;;;4982882;28;20640;-81
2022/03/27 12:01:54;;;;;;;18.90;13.70;;;18.40;85.10;;;;;;4978563;28;20294;-81
2022/03/27 12:04:21;;;;;;;18.23;13.67;;;18.30;84.70;;;;;;4983731;28;20206;-82
2022/03/27 12:06:48;;;;;;;22.53;13.40;;;18.20;84.00;;;;;;4980637;28;20814;-80
2022/03/27 12:09:25;;;;;;;16.97;12.20;;;18.30;84.20;;;;;;4983880;28;20630;-80
2022/03/27 12:12:10;;;;;;;17.23;12.07;;;18.30;85.50;;;;;;4985827;28;20227;-80
2022/03/27 12:14:54;;;;;;;15.90;11.63;;;18.30;84.80;;;;;;4981477;28;20197;-81
2022/03/27 12:17:22;;;;;;;15.73;12.10;;;18.40;85.40;;;;;;4979677;28;20230;-82
2022/03/27 12:20:00;;;;;;;16.50;13.03;;;18.50;84.70;;;;;;4973964;28;20547;-81
2022/03/27 12:22:35;;;;;;;17.27;13.17;;;18.50;81.60;;;;;;4976939;28;20252;-81
2022/03/27 12:25:02;;;;;;;19.47;13.00;;;18.50;82.10;;;;;;4983318;28;20760;-81
2022/03/27 12:30:15;;;;;;;15.10;11.10;;;18.50;80.60;;;;;;4967967;28;20206;-80
2022/03/27 12:32:42;;;;;;;16.80;11.47;;;18.60;81.00;;;;;;4985949;28;20264;-81
2022/03/27 12:35:10;;;;;;;18.53;12.70;;;18.70;79.60;;;;;;4974903;28;20271;-81
2022/03/27 12:37:44;;;;;;;20.03;12.20;;;18.70;78.10;;;;;;4975226;28;20235;-80
2022/03/27 12:40:12;;;;;;;21.20;12.03;;;18.60;77.00;;;;;;4975566;28;20201;-80
2022/03/27 12:42:43;;;;;;;14.40;11.30;;;18.60;76.80;;;;;;4987871;28;20213;-80
2022/03/27 12:45:13;;;;;;;19.00;12.63;;;18.70;78.10;;;;;;4997511;28;20628;-81
2022/03/27 12:47:42;;;;;;;13.73;10.57;;;18.70;77.00;;;;;;4974081;28;20733;-81
2022/03/27 12:50:11;;;;;;;13.93;11.20;;;18.70;76.50;;;;;;4984691;28;20194;-81
2022/03/27 12:52:47;;;;;;;17.33;10.73;;;18.80;75.00;;;;;;4980326;28;20272;-81
2022/03/27 12:55:14;;;;;;;16.03;11.43;;;18.70;75.10;;;;;;4977318;28;20297;-81
2022/03/27 12:58:04;;;;;;;15.43;10.97;;;18.70;73.20;;;;;;4985415;28;20202;-81